sensor_id;sensor_type;location;lat;lon;timestamp;temperature;humidity
32614;DHT22;19031;51.400;6.770;2022-11-18T00:00:47;9.10;99.90
32614;DHT22;19031;51.400;6.770;2022-11-18T00:03:13;9.10;99.90
32614;DHT22;19031;51.400;6.770;2022-11-18T00:05:38;9.10;99.90
32614;DHT22;19031;51.400;6.770;2022-11-18T00:08:04;9.10;99.90
32614;DHT22;19031;51.400;6.770;2022-11-18T00:10:29;9.20;99.90
32614;DHT22;19031;51.400;6.770;2022-11-18T00:12:55;9.20;99.90
32614;DHT22;19031;51.400;6.770;2022-11-18T00:15:39;9.20;99.90
32614;DHT22;19031;51.400;6.770;2022-11-18T00:18:05;9.30;99.90
32614;DHT22;19031;51.400;6.770;2022-11-18T00:20:31;9.30;99.90
32614;DHT22;19031;51.400;6.770;2022-11-18T00:22:57;9.30;99.90
32614;DHT22;19031;51.400;6.770;2022-11-18T00:25:22;9.30;99.90
32614;DHT22;19031;51.400;6.770;2022-11-18T00:27:48;9.40;99.90
32614;DHT22;19031;51.400;6.770;2022-11-18T00:30:13;9.40;99.90
32614;DHT22;19031;51.400;6.770;2022-11-18T00:32:39;9.40;99.90
32614;DHT22;19031;51.400;6.770;2022-11-18T00:35:04;9.40;99.90
32614;DHT22;19031;51.400;6.770;2022-11-18T00:37:30;9.50;99.90
32614;DHT22;19031;51.400;6.770;2022-11-18T00:39:55;9.50;99.90
32614;DHT22;19031;51.400;6.770;2022-11-18T00:42:21;9.50;99.90
32614;DHT22;19031;51.400;6.770;2022-11-18T00:45:05;9.30;99.90
32614;DHT22;19031;51.400;6.770;2022-11-18T00:47:31;9.40;99.90
32614;DHT22;19031;51.400;6.770;2022-11-18T00:49:56;9.40;99.90
32614;DHT22;19031;51.400;6.770;2022-11-18T00:52:22;9.30;99.90
32614;DHT22;19031;51.400;6.770;2022-11-18T00:54:47;9.30;99.90
32614;DHT22;19031;51.400;6.770;2022-11-18T00:57:12;9.20;99.90
32614;DHT22;19031;51.400;6.770;2022-11-18T00:59:38;9.10;99.90
32614;DHT22;19031;51.400;6.770;2022-11-18T01:02:03;9.10;99.90
32614;DHT22;19031;51.400;6.770;2022-11-18T01:04:29;9.10;99.90
32614;DHT22;19031;51.400;6.770;2022-11-18T01:06:55;9.00;99.90
32614;DHT22;19031;51.400;6.770;2022-11-18T01:09:20;9.00;99.90
32614;DHT22;19031;51.400;6.770;2022-11-18T01:11:46;9.00;99.90
32614;DHT22;19031;51.400;6.770;2022-11-18T01:14:30;9.10;99.90
32614;DHT22;19031;51.400;6.770;2022-11-18T01:16:55;9.10;99.90
32614;DHT22;19031;51.400;6.770;2022-11-18T01:19:21;9.10;99.90
32614;DHT22;19031;51.400;6.770;2022-11-18T01:21:48;9.10;99.90
32614;DHT22;19031;51.400;6.770;2022-11-18T01:24:13;9.20;99.90
32614;DHT22;19031;51.400;6.770;2022-11-18T01:26:39;9.10;99.90
32614;DHT22;19031;51.400;6.770;2022-11-18T01:29:04;9.30;99.90
32614;DHT22;19031;51.400;6.770;2022-11-18T01:31:30;9.30;99.90
32614;DHT22;19031;51.400;6.770;2022-11-18T01:33:55;9.30;99.90
32614;DHT22;19031;51.400;6.770;2022-11-18T01:38:46;9.40;99.90
32614;DHT22;19031;51.400;6.770;2022-11-18T01:41:12;9.30;99.90
32614;DHT22;19031;51.400;6.770;2022-11-18T01:43:51;9.40;99.90
32614;DHT22;19031;51.400;6.770;2022-11-18T01:46:17;9.30;99.90
32614;DHT22;19031;51.400;6.770;2022-11-18T01:48:43;9.40;99.90
32614;DHT22;19031;51.400;6.770;2022-11-18T01:51:10;9.40;99.90
32614;DHT22;19031;51.400;6.770;2022-11-18T01:53:38;9.40;99.90
32614;DHT22;19031;51.400;6.770;2022-11-18T01:56:06;9.30;99.90
32614;DHT22;19031;51.400;6.770;2022-11-18T01:58:36;9.40;99.90
32614;DHT22;19031;51.400;6.770;2022-11-18T02:01:03;9.40;99.90
32614;DHT22;19031;51.400;6.770;2022-11-18T02:03:29;9.40;99.90
32614;DHT22;19031;51.400;6.770;2022-11-18T02:05:55;9.40;99.90
32614;DHT22;19031;51.400;6.770;2022-11-18T02:08:21;9.40;99.90
32614;DHT22;19031;51.400;6.770;2022-11-18T02:10:47;9.30;99.90
32614;DHT22;19031;51.400;6.770;2022-11-18T02:13:12;9.30;99.90
32614;DHT22;19031;51.400;6.770;2022-11-18T02:20:43;9.40;99.90
32614;DHT22;19031;51.400;6.770;2022-11-18T02:31:14;9.50;99.90
32614;DHT22;19031;51.400;6.770;2022-11-18T02:33:48;9.50;99.90
32614;DHT22;19031;51.400;6.770;2022-11-18T02:39:02;9.50;99.90
32614;DHT22;19031;51.400;6.770;2022-11-18T02:41:29;9.50;99.90
32614;DHT22;19031;51.400;6.770;2022-11-18T02:44:01;9.60;99.90
32614;DHT22;19031;51.400;6.770;2022-11-18T02:46:31;9.60;99.90
32614;DHT22;19031;51.400;6.770;2022-11-18T02:48:57;9.50;99.90
32614;DHT22;19031;51.400;6.770;2022-11-18T02:51:24;9.50;99.90
32614;DHT22;19031;51.400;6.770;2022-11-18T02:53:51;9.40;99.90
32614;DHT22;19031;51.400;6.770;2022-11-18T02:56:19;9.40;99.90
32614;DHT22;19031;51.400;6.770;2022-11-18T02:58:45;9.40;99.90
32614;DHT22;19031;51.400;6.770;2022-11-18T03:01:22;9.40;99.90
32614;DHT22;19031;51.400;6.770;2022-11-18T03:03:48;9.40;99.90
32614;DHT22;19031;51.400;6.770;2022-11-18T03:09:05;9.30;99.90
32614;DHT22;19031;51.400;6.770;2022-11-18T03:11:55;9.30;99.90
32614;DHT22;19031;51.400;6.770;2022-11-18T03:16:44;9.20;99.90
32614;DHT22;19031;51.400;6.770;2022-11-18T03:19:19;9.30;99.90
32614;DHT22;19031;51.400;6.770;2022-11-18T03:21:51;9.20;99.90
32614;DHT22;19031;51.400;6.770;2022-11-18T03:24:24;9.20;99.90
32614;DHT22;19031;51.400;6.770;2022-11-18T03:26:54;9.20;99.90
32614;DHT22;19031;51.400;6.770;2022-11-18T03:29:46;9.20;99.90
32614;DHT22;19031;51.400;6.770;2022-11-18T03:32:15;9.30;99.90
32614;DHT22;19031;51.400;6.770;2022-11-18T03:34:45;9.30;99.90
32614;DHT22;19031;51.400;6.770;2022-11-18T03:37:12;9.30;99.90
32614;DHT22;19031;51.400;6.770;2022-11-18T03:39:39;9.30;99.90
32614;DHT22;19031;51.400;6.770;2022-11-18T03:42:11;9.40;99.90
32614;DHT22;19031;51.400;6.770;2022-11-18T03:44:38;9.30;99.90
32614;DHT22;19031;51.400;6.770;2022-11-18T03:47:06;9.40;99.90
32614;DHT22;19031;51.400;6.770;2022-11-18T03:49:35;9.40;99.90
32614;DHT22;19031;51.400;6.770;2022-11-18T03:52:05;9.40;99.90
32614;DHT22;19031;51.400;6.770;2022-11-18T03:54:32;9.50;99.90
32614;DHT22;19031;51.400;6.770;2022-11-18T03:57:00;9.50;99.90
32614;DHT22;19031;51.400;6.770;2022-11-18T04:04:33;9.50;99.90
32614;DHT22;19031;51.400;6.770;2022-11-18T04:09:40;9.50;99.90
32614;DHT22;19031;51.400;6.770;2022-11-18T04:12:07;9.50;99.90
32614;DHT22;19031;51.400;6.770;2022-11-18T04:14:36;9.50;99.90
32614;DHT22;19031;51.400;6.770;2022-11-18T04:17:21;9.50;99.90
32614;DHT22;19031;51.400;6.770;2022-11-18T04:19:46;9.50;99.90
32614;DHT22;19031;51.400;6.770;2022-11-18T04:22:12;9.50;99.90
32614;DHT22;19031;51.400;6.770;2022-11-18T04:24:38;9.50;99.90
32614;DHT22;19031;51.400;6.770;2022-11-18T04:27:04;9.40;99.90
32614;DHT22;19031;51.400;6.770;2022-11-18T04:29:30;9.50;99.90
32614;DHT22;19031;51.400;6.770;2022-11-18T04:31:55;9.50;99.90
32614;DHT22;19031;51.400;6.770;2022-11-18T04:34:21;9.60;99.90
32614;DHT22;19031;51.400;6.770;2022-11-18T04:36:46;9.50;99.90
32614;DHT22;19031;51.400;6.770;2022-11-18T04:39:12;9.50;99.90
32614;DHT22;19031;51.400;6.770;2022-11-18T04:41:37;9.50;99.90
32614;DHT22;19031;51.400;6.770;2022-11-18T04:46:47;9.50;99.90
32614;DHT22;19031;51.400;6.770;2022-11-18T04:49:13;9.60;99.90
32614;DHT22;19031;51.400;6.770;2022-11-18T04:51:39;9.60;99.90
32614;DHT22;19031;51.400;6.770;2022-11-18T04:54:05;9.60;99.90
32614;DHT22;19031;51.400;6.770;2022-11-18T04:56:31;9.60;99.90
32614;DHT22;19031;51.400;6.770;2022-11-18T04:59:00;9.60;99.90
32614;DHT22;19031;51.400;6.770;2022-11-18T05:01:26;9.60;99.90
32614;DHT22;19031;51.400;6.770;2022-11-18T05:03:52;9.70;99.90
32614;DHT22;19031;51.400;6.770;2022-11-18T05:06:17;9.70;99.90
32614;DHT22;19031;51.400;6.770;2022-11-18T05:08:43;9.70;99.90
32614;DHT22;19031;51.400;6.770;2022-11-18T05:11:08;9.70;99.90
32614;DHT22;19031;51.400;6.770;2022-11-18T05:13:52;9.60;99.90
32614;DHT22;19031;51.400;6.770;2022-11-18T05:16:18;9.80;99.90
32614;DHT22;19031;51.400;6.770;2022-11-18T05:18:43;9.80;99.90
32614;DHT22;19031;51.400;6.770;2022-11-18T05:21:09;9.80;99.90
32614;DHT22;19031;51.400;6.770;2022-11-18T05:23:34;9.80;99.90
32614;DHT22;19031;51.400;6.770;2022-11-18T05:26:06;9.80;99.90
32614;DHT22;19031;51.400;6.770;2022-11-18T05:28:32;9.70;99.90
32614;DHT22;19031;51.400;6.770;2022-11-18T05:30:58;9.80;99.90
32614;DHT22;19031;51.400;6.770;2022-11-18T05:33:23;9.70;99.90
32614;DHT22;19031;51.400;6.770;2022-11-18T05:35:49;9.70;99.90
32614;DHT22;19031;51.400;6.770;2022-11-18T05:38:14;9.70;99.90
32614;DHT22;19031;51.400;6.770;2022-11-18T05:40:43;9.70;99.90
32614;DHT22;19031;51.400;6.770;2022-11-18T05:43:09;9.70;99.90
32614;DHT22;19031;51.400;6.770;2022-11-18T05:45:42;9.60;99.90
32614;DHT22;19031;51.400;6.770;2022-11-18T05:48:07;9.60;99.90
32614;DHT22;19031;51.400;6.770;2022-11-18T05:50:34;9.60;99.90
32614;DHT22;19031;51.400;6.770;2022-11-18T05:53:00;9.50;99.90
32614;DHT22;19031;51.400;6.770;2022-11-18T05:55:50;9.40;99.90
32614;DHT22;19031;51.400;6.770;2022-11-18T05:58:11;9.30;99.90
32614;DHT22;19031;51.400;6.770;2022-11-18T06:00:37;9.30;99.90
32614;DHT22;19031;51.400;6.770;2022-11-18T06:03:03;9.20;99.90
32614;DHT22;19031;51.400;6.770;2022-11-18T06:05:31;9.10;99.90
32614;DHT22;19031;51.400;6.770;2022-11-18T06:07:56;9.10;99.90
32614;DHT22;19031;51.400;6.770;2022-11-18T06:10:26;9.10;99.90
32614;DHT22;19031;51.400;6.770;2022-11-18T06:12:55;9.00;99.90
32614;DHT22;19031;51.400;6.770;2022-11-18T06:15:26;9.10;99.90
32614;DHT22;19031;51.400;6.770;2022-11-18T06:20:18;8.90;99.90
32614;DHT22;19031;51.400;6.770;2022-11-18T06:22:44;9.00;99.90
32614;DHT22;19031;51.400;6.770;2022-11-18T06:25:09;9.00;99.90
32614;DHT22;19031;51.400;6.770;2022-11-18T06:27:35;9.10;99.90
32614;DHT22;19031;51.400;6.770;2022-11-18T06:30:00;9.10;99.90
32614;DHT22;19031;51.400;6.770;2022-11-18T06:32:26;9.10;99.90
32614;DHT22;19031;51.400;6.770;2022-11-18T06:34:51;9.10;99.90
32614;DHT22;19031;51.400;6.770;2022-11-18T06:37:18;9.10;99.90
32614;DHT22;19031;51.400;6.770;2022-11-18T06:39:46;9.20;99.90
32614;DHT22;19031;51.400;6.770;2022-11-18T06:42:12;9.20;99.90
32614;DHT22;19031;51.400;6.770;2022-11-18T06:45:00;9.20;99.90
32614;DHT22;19031;51.400;6.770;2022-11-18T06:47:26;9.30;99.90
32614;DHT22;19031;51.400;6.770;2022-11-18T06:49:52;9.30;99.90
32614;DHT22;19031;51.400;6.770;2022-11-18T06:52:17;9.30;99.90
32614;DHT22;19031;51.400;6.770;2022-11-18T06:54:43;9.40;99.90
32614;DHT22;19031;51.400;6.770;2022-11-18T06:57:08;9.40;99.90
32614;DHT22;19031;51.400;6.770;2022-11-18T06:59:34;9.50;99.90
32614;DHT22;19031;51.400;6.770;2022-11-18T07:01:59;9.50;99.90
32614;DHT22;19031;51.400;6.770;2022-11-18T07:04:24;9.40;99.90
32614;DHT22;19031;51.400;6.770;2022-11-18T07:06:50;9.40;99.90
32614;DHT22;19031;51.400;6.770;2022-11-18T07:09:15;9.50;99.90
32614;DHT22;19031;51.400;6.770;2022-11-18T07:11:41;9.50;99.90
32614;DHT22;19031;51.400;6.770;2022-11-18T07:14:07;9.50;99.90
32614;DHT22;19031;51.400;6.770;2022-11-18T07:16:33;9.50;99.90
32614;DHT22;19031;51.400;6.770;2022-11-18T07:18:59;9.40;99.90
32614;DHT22;19031;51.400;6.770;2022-11-18T07:21:25;9.50;99.90
32614;DHT22;19031;51.400;6.770;2022-11-18T07:23:52;9.50;99.90
32614;DHT22;19031;51.400;6.770;2022-11-18T07:26:17;9.60;99.90
32614;DHT22;19031;51.400;6.770;2022-11-18T07:28:43;9.60;99.90
32614;DHT22;19031;51.400;6.770;2022-11-18T07:31:10;9.50;99.90
32614;DHT22;19031;51.400;6.770;2022-11-18T07:33:38;9.60;99.90
32614;DHT22;19031;51.400;6.770;2022-11-18T07:36:07;9.60;99.90
32614;DHT22;19031;51.400;6.770;2022-11-18T07:38:33;9.60;99.90
32614;DHT22;19031;51.400;6.770;2022-11-18T07:41:02;9.70;99.90
32614;DHT22;19031;51.400;6.770;2022-11-18T07:43:28;9.60;99.90
32614;DHT22;19031;51.400;6.770;2022-11-18T07:45:54;9.70;99.90
32614;DHT22;19031;51.400;6.770;2022-11-18T07:48:19;9.60;99.90
32614;DHT22;19031;51.400;6.770;2022-11-18T07:50:45;9.60;99.90
32614;DHT22;19031;51.400;6.770;2022-11-18T07:53:10;9.60;99.90
32614;DHT22;19031;51.400;6.770;2022-11-18T07:55:36;9.70;99.90
32614;DHT22;19031;51.400;6.770;2022-11-18T07:58:01;9.70;99.90
32614;DHT22;19031;51.400;6.770;2022-11-18T08:00:27;9.70;99.90
32614;DHT22;19031;51.400;6.770;2022-11-18T08:02:53;9.70;99.90
32614;DHT22;19031;51.400;6.770;2022-11-18T08:05:18;9.90;99.90
32614;DHT22;19031;51.400;6.770;2022-11-18T08:07:44;9.90;99.90
32614;DHT22;19031;51.400;6.770;2022-11-18T08:10:09;9.90;99.90
32614;DHT22;19031;51.400;6.770;2022-11-18T08:12:35;10.00;99.90
32614;DHT22;19031;51.400;6.770;2022-11-18T08:15:00;10.00;99.90
32614;DHT22;19031;51.400;6.770;2022-11-18T08:17:26;10.10;99.90
32614;DHT22;19031;51.400;6.770;2022-11-18T08:19:51;10.10;99.90
32614;DHT22;19031;51.400;6.770;2022-11-18T08:22:17;10.10;99.90
32614;DHT22;19031;51.400;6.770;2022-11-18T08:24:45;10.20;99.90
32614;DHT22;19031;51.400;6.770;2022-11-18T08:27:11;10.20;99.90
32614;DHT22;19031;51.400;6.770;2022-11-18T08:29:37;10.10;99.90
32614;DHT22;19031;51.400;6.770;2022-11-18T08:32:02;10.10;99.90
32614;DHT22;19031;51.400;6.770;2022-11-18T08:34:28;10.10;99.90
32614;DHT22;19031;51.400;6.770;2022-11-18T08:36:54;10.20;99.90
32614;DHT22;19031;51.400;6.770;2022-11-18T08:39:19;10.20;99.90
32614;DHT22;19031;51.400;6.770;2022-11-18T08:41:45;10.20;99.90
32614;DHT22;19031;51.400;6.770;2022-11-18T08:44:12;10.10;99.90
32614;DHT22;19031;51.400;6.770;2022-11-18T08:46:38;10.10;99.90
32614;DHT22;19031;51.400;6.770;2022-11-18T08:49:03;10.20;99.90
32614;DHT22;19031;51.400;6.770;2022-11-18T08:51:29;10.20;99.90
32614;DHT22;19031;51.400;6.770;2022-11-18T08:53:54;10.20;99.90
32614;DHT22;19031;51.400;6.770;2022-11-18T08:56:20;10.30;99.90
32614;DHT22;19031;51.400;6.770;2022-11-18T08:58:46;10.30;99.90
32614;DHT22;19031;51.400;6.770;2022-11-18T09:01:12;10.30;99.90
32614;DHT22;19031;51.400;6.770;2022-11-18T09:03:37;10.40;99.90
32614;DHT22;19031;51.400;6.770;2022-11-18T09:06:05;10.40;99.90
32614;DHT22;19031;51.400;6.770;2022-11-18T09:08:30;10.40;99.90
32614;DHT22;19031;51.400;6.770;2022-11-18T09:10:56;10.50;99.90
32614;DHT22;19031;51.400;6.770;2022-11-18T09:13:21;10.60;99.90
32614;DHT22;19031;51.400;6.770;2022-11-18T09:15:47;10.70;99.90
32614;DHT22;19031;51.400;6.770;2022-11-18T09:18:12;10.60;99.90
32614;DHT22;19031;51.400;6.770;2022-11-18T09:20:38;10.70;99.90
32614;DHT22;19031;51.400;6.770;2022-11-18T09:23:03;10.70;99.90
32614;DHT22;19031;51.400;6.770;2022-11-18T09:25:29;10.70;99.90
32614;DHT22;19031;51.400;6.770;2022-11-18T09:27:55;10.70;99.90
32614;DHT22;19031;51.400;6.770;2022-11-18T09:30:20;10.70;99.90
32614;DHT22;19031;51.400;6.770;2022-11-18T09:32:46;10.70;99.90
32614;DHT22;19031;51.400;6.770;2022-11-18T09:35:11;10.80;99.90
32614;DHT22;19031;51.400;6.770;2022-11-18T09:37:36;10.90;99.90
32614;DHT22;19031;51.400;6.770;2022-11-18T09:40:05;10.90;99.90
32614;DHT22;19031;51.400;6.770;2022-11-18T09:42:39;10.90;99.90
32614;DHT22;19031;51.400;6.770;2022-11-18T09:47:41;10.90;99.90
32614;DHT22;19031;51.400;6.770;2022-11-18T09:50:11;10.80;99.90
32614;DHT22;19031;51.400;6.770;2022-11-18T09:52:39;10.80;99.90
32614;DHT22;19031;51.400;6.770;2022-11-18T09:55:13;10.90;99.90
32614;DHT22;19031;51.400;6.770;2022-11-18T09:57:43;10.90;99.90
32614;DHT22;19031;51.400;6.770;2022-11-18T10:00:18;10.90;99.90
32614;DHT22;19031;51.400;6.770;2022-11-18T10:05:22;10.80;99.90
32614;DHT22;19031;51.400;6.770;2022-11-18T10:13:03;12.60;99.90
32614;DHT22;19031;51.400;6.770;2022-11-18T10:15:35;13.90;99.90
32614;DHT22;19031;51.400;6.770;2022-11-18T10:18:06;15.60;72.20
32614;DHT22;19031;51.400;6.770;2022-11-18T10:23:17;18.70;1.00
32614;DHT22;19031;51.400;6.770;2022-11-18T10:25:45;19.20;1.00
32614;DHT22;19031;51.400;6.770;2022-11-18T10:28:14;20.20;99.90
32614;DHT22;19031;51.400;6.770;2022-11-18T10:30:40;20.50;99.90
32614;DHT22;19031;51.400;6.770;2022-11-18T10:33:22;20.10;99.90
32614;DHT22;19031;51.400;6.770;2022-11-18T10:35:48;19.70;99.90
32614;DHT22;19031;51.400;6.770;2022-11-18T10:38:19;18.60;99.90
32614;DHT22;19031;51.400;6.770;2022-11-18T10:41:06;18.00;1.00
32614;DHT22;19031;51.400;6.770;2022-11-18T10:46:16;17.70;1.00
32614;DHT22;19031;51.400;6.770;2022-11-18T10:48:44;17.00;1.00
32614;DHT22;19031;51.400;6.770;2022-11-18T10:51:20;16.50;1.00
32614;DHT22;19031;51.400;6.770;2022-11-18T10:53:45;15.80;1.00
32614;DHT22;19031;51.400;6.770;2022-11-18T10:56:12;15.40;22.50
32614;DHT22;19031;51.400;6.770;2022-11-18T10:58:42;14.50;27.20
32614;DHT22;19031;51.400;6.770;2022-11-18T11:08:55;13.90;71.70
32614;DHT22;19031;51.400;6.770;2022-11-18T11:14:03;13.20;74.70
32614;DHT22;19031;51.400;6.770;2022-11-18T11:16:29;12.90;80.90
32614;DHT22;19031;51.400;6.770;2022-11-18T11:18:58;12.60;87.50
32614;DHT22;19031;51.400;6.770;2022-11-18T11:21:25;12.40;90.40
32614;DHT22;19031;51.400;6.770;2022-11-18T11:23:52;12.30;91.60
32614;DHT22;19031;51.400;6.770;2022-11-18T11:27:02;12.30;92.90
32614;DHT22;19031;51.400;6.770;2022-11-18T11:32:00;12.40;92.60
32614;DHT22;19031;51.400;6.770;2022-11-18T11:34:31;12.50;94.50
32614;DHT22;19031;51.400;6.770;2022-11-18T11:37:19;12.60;92.50
32614;DHT22;19031;51.400;6.770;2022-11-18T11:50:12;12.80;91.70
32614;DHT22;19031;51.400;6.770;2022-11-18T11:55:17;12.90;92.80
32614;DHT22;19031;51.400;6.770;2022-11-18T12:00:20;12.90;90.70
32614;DHT22;19031;51.400;6.770;2022-11-18T12:05:22;12.70;86.40
32614;DHT22;19031;51.400;6.770;2022-11-18T12:07:55;12.50;81.10
32614;DHT22;19031;51.400;6.770;2022-11-18T12:15:32;12.40;91.80
32614;DHT22;19031;51.400;6.770;2022-11-18T12:18:20;12.40;89.20
32614;DHT22;19031;51.400;6.770;2022-11-18T12:20:52;12.50;88.90
32614;DHT22;19031;51.400;6.770;2022-11-18T12:28:21;12.70;90.80
32614;DHT22;19031;51.400;6.770;2022-11-18T12:30:47;12.90;90.20
32614;DHT22;19031;51.400;6.770;2022-11-18T12:33:13;13.10;84.90
32614;DHT22;19031;51.400;6.770;2022-11-18T12:35:42;13.20;84.60
32614;DHT22;19031;51.400;6.770;2022-11-18T12:38:26;13.20;77.40
32614;DHT22;19031;51.400;6.770;2022-11-18T12:40:52;13.20;75.60
32614;DHT22;19031;51.400;6.770;2022-11-18T12:49:48;13.00;75.30
32614;DHT22;19031;51.400;6.770;2022-11-18T12:51:44;12.90;81.60
32614;DHT22;19031;51.400;6.770;2022-11-18T12:54:21;12.90;74.50
32614;DHT22;19031;51.400;6.770;2022-11-18T12:56:48;12.80;75.60
32614;DHT22;19031;51.400;6.770;2022-11-18T12:59:15;12.80;78.80
32614;DHT22;19031;51.400;6.770;2022-11-18T13:01:40;12.90;80.60
32614;DHT22;19031;51.400;6.770;2022-11-18T13:04:15;13.00;80.00
32614;DHT22;19031;51.400;6.770;2022-11-18T13:06:41;13.10;76.20
32614;DHT22;19031;51.400;6.770;2022-11-18T13:09:15;13.10;78.70
32614;DHT22;19031;51.400;6.770;2022-11-18T13:11:54;13.10;75.60
32614;DHT22;19031;51.400;6.770;2022-11-18T13:14:24;13.10;77.10
32614;DHT22;19031;51.400;6.770;2022-11-18T13:20:17;13.30;61.90
32614;DHT22;19031;51.400;6.770;2022-11-18T13:22:48;13.50;66.40
32614;DHT22;19031;51.400;6.770;2022-11-18T13:25:32;13.40;62.00
32614;DHT22;19031;51.400;6.770;2022-11-18T13:28:01;13.40;67.80
32614;DHT22;19031;51.400;6.770;2022-11-18T13:30:27;13.30;65.10
32614;DHT22;19031;51.400;6.770;2022-11-18T13:32:54;13.20;62.20
32614;DHT22;19031;51.400;6.770;2022-11-18T13:35:22;13.00;66.60
32614;DHT22;19031;51.400;6.770;2022-11-18T13:40:16;12.80;65.60
32614;DHT22;19031;51.400;6.770;2022-11-18T13:42:43;12.60;72.30
32614;DHT22;19031;51.400;6.770;2022-11-18T13:45:11;12.50;77.10
32614;DHT22;19031;51.400;6.770;2022-11-18T13:47:39;12.40;83.30
32614;DHT22;19031;51.400;6.770;2022-11-18T13:50:13;12.40;86.70
32614;DHT22;19031;51.400;6.770;2022-11-18T13:57:38;12.20;90.40
32614;DHT22;19031;51.400;6.770;2022-11-18T14:00:05;12.20;89.90
32614;DHT22;19031;51.400;6.770;2022-11-18T14:02:31;12.10;91.60
32614;DHT22;19031;51.400;6.770;2022-11-18T14:05:02;12.20;92.00
32614;DHT22;19031;51.400;6.770;2022-11-18T14:07:29;12.20;92.10
32614;DHT22;19031;51.400;6.770;2022-11-18T14:09:56;12.00;91.80
32614;DHT22;19031;51.400;6.770;2022-11-18T14:12:24;11.90;93.20
32614;DHT22;19031;51.400;6.770;2022-11-18T14:14:50;11.90;93.70
32614;DHT22;19031;51.400;6.770;2022-11-18T14:17:17;11.80;93.90
32614;DHT22;19031;51.400;6.770;2022-11-18T14:19:43;11.70;94.60
32614;DHT22;19031;51.400;6.770;2022-11-18T14:22:18;11.70;96.20
32614;DHT22;19031;51.400;6.770;2022-11-18T14:24:52;11.60;95.90
32614;DHT22;19031;51.400;6.770;2022-11-18T14:27:32;11.50;96.90
32614;DHT22;19031;51.400;6.770;2022-11-18T14:29:58;11.50;96.80
32614;DHT22;19031;51.400;6.770;2022-11-18T14:32:26;11.50;97.20
32614;DHT22;19031;51.400;6.770;2022-11-18T14:34:58;11.40;96.50
32614;DHT22;19031;51.400;6.770;2022-11-18T14:37:24;11.30;96.90
32614;DHT22;19031;51.400;6.770;2022-11-18T14:39:54;11.20;97.70
32614;DHT22;19031;51.400;6.770;2022-11-18T14:42:20;11.00;98.10
32614;DHT22;19031;51.400;6.770;2022-11-18T14:44:45;11.00;98.70
32614;DHT22;19031;51.400;6.770;2022-11-18T14:47:20;10.90;99.60
32614;DHT22;19031;51.400;6.770;2022-11-18T14:49:46;10.90;99.90
32614;DHT22;19031;51.400;6.770;2022-11-18T14:52:11;10.90;99.90
32614;DHT22;19031;51.400;6.770;2022-11-18T14:54:37;10.70;99.90
32614;DHT22;19031;51.400;6.770;2022-11-18T14:57:03;10.70;99.90
32614;DHT22;19031;51.400;6.770;2022-11-18T14:59:29;10.60;99.90
32614;DHT22;19031;51.400;6.770;2022-11-18T15:01:54;10.50;99.90
32614;DHT22;19031;51.400;6.770;2022-11-18T15:04:20;10.40;99.90
32614;DHT22;19031;51.400;6.770;2022-11-18T15:06:46;10.30;99.90
32614;DHT22;19031;51.400;6.770;2022-11-18T15:09:11;10.20;99.90
32614;DHT22;19031;51.400;6.770;2022-11-18T15:11:37;10.00;99.90
32614;DHT22;19031;51.400;6.770;2022-11-18T15:14:03;9.90;99.90
32614;DHT22;19031;51.400;6.770;2022-11-18T15:16:29;9.80;99.90
32614;DHT22;19031;51.400;6.770;2022-11-18T15:18:56;9.70;99.90
32614;DHT22;19031;51.400;6.770;2022-11-18T15:21:22;9.60;99.90
32614;DHT22;19031;51.400;6.770;2022-11-18T15:23:47;9.50;99.90
32614;DHT22;19031;51.400;6.770;2022-11-18T15:28:48;9.40;99.90
32614;DHT22;19031;51.400;6.770;2022-11-18T15:31:14;9.30;99.90
32614;DHT22;19031;51.400;6.770;2022-11-18T15:33:40;9.20;99.90
32614;DHT22;19031;51.400;6.770;2022-11-18T15:36:12;9.10;99.90
32614;DHT22;19031;51.400;6.770;2022-11-18T15:38:39;9.00;99.90
32614;DHT22;19031;51.400;6.770;2022-11-18T15:41:04;8.90;99.90
32614;DHT22;19031;51.400;6.770;2022-11-18T15:43:30;8.90;99.90
32614;DHT22;19031;51.400;6.770;2022-11-18T15:45:56;8.80;99.90
32614;DHT22;19031;51.400;6.770;2022-11-18T15:48:22;8.80;99.90
32614;DHT22;19031;51.400;6.770;2022-11-18T15:50:47;8.70;99.90
32614;DHT22;19031;51.400;6.770;2022-11-18T15:53:13;8.60;99.90
32614;DHT22;19031;51.400;6.770;2022-11-18T15:55:39;8.50;99.90
32614;DHT22;19031;51.400;6.770;2022-11-18T15:58:04;8.40;99.90
32614;DHT22;19031;51.400;6.770;2022-11-18T16:00:29;8.30;99.90
32614;DHT22;19031;51.400;6.770;2022-11-18T16:02:55;8.30;99.90
32614;DHT22;19031;51.400;6.770;2022-11-18T16:05:20;8.20;99.90
32614;DHT22;19031;51.400;6.770;2022-11-18T16:07:46;8.30;99.90
32614;DHT22;19031;51.400;6.770;2022-11-18T16:10:12;8.30;99.90
32614;DHT22;19031;51.400;6.770;2022-11-18T16:12:56;8.20;99.90
32614;DHT22;19031;51.400;6.770;2022-11-18T16:15:21;8.20;99.90
32614;DHT22;19031;51.400;6.770;2022-11-18T16:18:05;8.20;99.90
32614;DHT22;19031;51.400;6.770;2022-11-18T16:20:31;8.20;99.90
32614;DHT22;19031;51.400;6.770;2022-11-18T16:22:56;8.20;99.90
32614;DHT22;19031;51.400;6.770;2022-11-18T16:25:22;8.30;99.90
32614;DHT22;19031;51.400;6.770;2022-11-18T16:27:48;8.20;99.90
32614;DHT22;19031;51.400;6.770;2022-11-18T16:30:13;8.10;99.90
32614;DHT22;19031;51.400;6.770;2022-11-18T16:32:58;8.10;99.90
32614;DHT22;19031;51.400;6.770;2022-11-18T16:35:24;8.10;99.90
32614;DHT22;19031;51.400;6.770;2022-11-18T16:37:50;8.00;99.90
32614;DHT22;19031;51.400;6.770;2022-11-18T16:40:15;8.00;99.90
32614;DHT22;19031;51.400;6.770;2022-11-18T16:42:41;8.00;99.90
32614;DHT22;19031;51.400;6.770;2022-11-18T16:45:07;7.90;99.90
32614;DHT22;19031;51.400;6.770;2022-11-18T16:47:32;7.90;99.90
32614;DHT22;19031;51.400;6.770;2022-11-18T16:49:58;7.80;99.90
32614;DHT22;19031;51.400;6.770;2022-11-18T16:52:23;7.80;99.90
32614;DHT22;19031;51.400;6.770;2022-11-18T16:54:49;7.80;99.90
32614;DHT22;19031;51.400;6.770;2022-11-18T16:57:14;7.70;99.90
32614;DHT22;19031;51.400;6.770;2022-11-18T16:59:39;7.70;99.90
32614;DHT22;19031;51.400;6.770;2022-11-18T17:02:05;7.60;99.90
32614;DHT22;19031;51.400;6.770;2022-11-18T17:04:34;7.70;99.90
32614;DHT22;19031;51.400;6.770;2022-11-18T17:07:01;7.70;99.90
32614;DHT22;19031;51.400;6.770;2022-11-18T17:09:27;7.70;99.90
32614;DHT22;19031;51.400;6.770;2022-11-18T17:11:53;7.70;99.90
32614;DHT22;19031;51.400;6.770;2022-11-18T17:14:19;7.80;99.90
32614;DHT22;19031;51.400;6.770;2022-11-18T17:16:45;7.90;99.90
32614;DHT22;19031;51.400;6.770;2022-11-18T17:19:15;7.90;99.90
32614;DHT22;19031;51.400;6.770;2022-11-18T17:21:41;7.90;99.90
32614;DHT22;19031;51.400;6.770;2022-11-18T17:24:07;8.00;99.90
32614;DHT22;19031;51.400;6.770;2022-11-18T17:26:33;7.90;99.90
32614;DHT22;19031;51.400;6.770;2022-11-18T17:28:59;8.00;99.90
32614;DHT22;19031;51.400;6.770;2022-11-18T17:31:25;8.00;99.90
32614;DHT22;19031;51.400;6.770;2022-11-18T17:33:51;8.00;99.90
32614;DHT22;19031;51.400;6.770;2022-11-18T17:36:18;8.10;99.90